Ana Sayfa
METAR-TAF:

METAR-TAF

Havaalanları :

Krasnodar Uluslararası Havalimanı

Krasnodar, Rusya

Enlem: 45-02N, Boylam: 039-09E, yükseklik: 33 m

Güncel hava durumu gözlemi

Rapor saat 17:30 UTC de 24 dakika önce yapıldı.
Rüzgar kuzey/kuzeydoğudan 14 kt
Sıcaklık 29°C
Nem 35%
Basınç 1010 hPa
Görüş mesafesi 10 km veya daha fazla
1500 m altında bulut yok ve kümülonimbus yok

METAR: URKK 181730Z 03007MPS CAVOK 29/12 Q1010 R05R/CLRD70 NOSIG RMK QFE754

Saat: 20:54 (17:54 UTC)

Tahmin

Rapor saat 16:58 UTC de 56 dakika önce yapıldı.
Ayın 18'si saat 18 UTC'den ayın 19'si saat 18 UTC'ye kadar geçerli Tahmin
Rüzgar kuzeydoğudan 16 kt ve 27 kt'a kadar ani rüzgarlar
Görüş mesafesi 10 km veya daha fazla
1500 m altında bulut yok ve kümülonimbus yok
Geçici
ayın 19'si saat 06 UTC'den ayın 19'si saat 15 UTC'ye kadar
Rüzgar doğu/kuzeydoğudan 23 kt ve 35 kt'a kadar ani rüzgarlar

TAF: URKK 181658Z 1818/1918 04008G14MPS CAVOK TEMPO 1906/1915 06012G18MPS

4.000'den fazla havaalanı için hava durumu gözlemleri ve tahminleri (METAR ve TAF raporları).

Kullanılabilir istasyonlar harita üzerinde sarı ve kırmızı noktalarla gösterilir.

İstasyonun adını görmek için fareyi noktanın üzerinde gezdirin.

Sonrasında hava gözlem ve tahminlerini görmek için tıklayın.

Haritayı değiştirmek için: yaklaştırmak için siyah artı işaretli yeşil düğmeye ve uzaklaştırmak için de eksi işaretli düğmeye hızla tıklayın; bitişik haritalar için yeşil okları kullanın.


METAR-TAF: